Time;durP1;ratioP1;P1;durP2;ratioP2;P2;SDS_P1;SDS_P2;PMS_P1;PMS_P2;Temp;Humidity;BMP_temperature;BMP_pressure;BME280_temperature;BME280_humidity;BME280_pressure;Samples;Min_cycle;Max_cycle;Signal;HPM_P1;HPM_P2
2022/09/27 00:00:27;;;;;;;;;;;21.60;99.90;;;;;;5152265;27;19955;-73
2022/09/27 00:03:23;;;;;;;;;;;21.60;99.90;;;;;;5152113;27;19911;-73
2022/09/27 00:05:59;;;;;;;;;;;21.60;99.90;;;;;;5151860;27;19934;-73
2022/09/27 00:08:25;;;;;;;;;;;21.60;99.90;;;;;;5151988;27;19947;-73
2022/09/27 00:10:57;;;;;;;;;;;21.60;99.90;;;;;;5151578;27;20057;-74
2022/09/27 00:13:23;;;;;;;;;;;21.60;99.90;;;;;;5150488;27;19972;-73
2022/09/27 00:15:54;;;;;;;;;;;21.60;99.90;;;;;;5151799;27;19907;-73
2022/09/27 00:18:20;;;;;;;;;;;21.60;99.90;;;;;;5151890;27;19906;-73
2022/09/27 00:20:46;;;;;;;;;;;21.70;99.90;;;;;;5151806;27;19910;-73
2022/09/27 00:23:12;;;;;;;;;;;21.70;99.90;;;;;;5151324;27;19911;-72
2022/09/27 00:25:38;;;;;;;;;;;21.70;99.90;;;;;;5151535;27;19947;-73
2022/09/27 00:28:04;;;;;;;;;;;21.70;99.90;;;;;;5151467;27;19932;-73
2022/09/27 00:30:30;;;;;;;;;;;21.70;99.90;;;;;;5151461;27;19911;-73
2022/09/27 00:32:55;;;;;;;;;;;21.70;99.90;;;;;;5151472;27;19903;-73
2022/09/27 00:35:21;;;;;;;;;;;21.70;99.90;;;;;;5153466;27;19915;-73
2022/09/27 00:37:47;;;;;;;;;;;21.70;99.90;;;;;;5155975;27;19910;-73
2022/09/27 00:40:14;;;;;;;;;;;21.70;99.90;;;;;;5155577;27;20001;-73
2022/09/27 00:42:40;;;;;;;;;;;21.70;99.90;;;;;;5155657;27;19930;-74
2022/09/27 00:45:10;;;;;;;;;;;21.70;99.90;;;;;;5155474;27;19986;-73
2022/09/27 00:47:48;;;;;;;;;;;21.60;99.90;;;;;;5155599;27;19993;-73
2022/09/27 00:50:20;;;;;;;;;;;21.70;99.90;;;;;;5153887;27;19946;-72
2022/09/27 00:52:51;;;;;;;;;;;21.60;99.90;;;;;;5155834;27;20343;-73
2022/09/27 00:55:19;;;;;;;;;;;21.70;99.90;;;;;;5153777;27;20315;-74
2022/09/27 00:57:46;;;;;;;;;;;21.70;99.90;;;;;;5155501;27;19938;-74
2022/09/27 01:00:14;;;;;;;;;;;21.70;99.90;;;;;;5153771;27;19903;-73
2022/09/27 01:02:42;;;;;;;;;;;21.70;99.90;;;;;;5155560;27;20025;-73
2022/09/27 01:05:09;;;;;;;;;;;21.70;99.90;;;;;;5155406;27;19960;-73
2022/09/27 01:07:35;;;;;;;;;;;21.70;99.90;;;;;;5155294;27;20010;-73
2022/09/27 01:10:01;;;;;;;;;;;21.70;99.90;;;;;;5155242;27;19903;-73
2022/09/27 01:12:30;;;;;;;;;;;21.70;99.90;;;;;;5155021;27;20001;-74
2022/09/27 01:15:02;;;;;;;;;;;21.70;99.90;;;;;;5155482;27;20363;-73
2022/09/27 01:17:28;;;;;;;;;;;21.60;99.90;;;;;;5155097;27;20000;-73
2022/09/27 01:20:14;;;;;;;;;;;21.60;99.90;;;;;;5155214;27;20348;-73
2022/09/27 01:23:03;;;;;;;;;;;21.70;99.90;;;;;;5154935;27;19907;-74
2022/09/27 01:25:38;;;;;;;;;;;21.70;99.90;;;;;;5152495;27;20093;-73
2022/09/27 01:28:24;;;;;;;;;;;21.70;99.90;;;;;;5155058;27;19926;-73
2022/09/27 01:30:53;;;;;;;;;;;21.70;99.90;;;;;;5154876;27;19967;-73
2022/09/27 01:33:37;;;;;;;;;;;21.70;99.90;;;;;;5154956;27;20290;-73
2022/09/27 01:36:24;;;;;;;;;;;21.70;99.90;;;;;;5154456;27;19903;-73
2022/09/27 01:38:52;;;;;;;;;;;21.70;99.90;;;;;;5154264;27;19903;-74
2022/09/27 01:41:36;;;;;;;;;;;21.70;99.90;;;;;;5154789;27;19903;-74
2022/09/27 01:44:03;;;;;;;;;;;21.70;99.90;;;;;;5154515;27;19917;-73
2022/09/27 01:46:40;;;;;;;;;;;21.70;99.90;;;;;;5153919;27;19911;-73
2022/09/27 01:49:11;;;;;;;;;;;21.70;99.90;;;;;;5154442;27;19954;-72
2022/09/27 01:51:43;;;;;;;;;;;21.70;99.90;;;;;;5154634;27;19987;-73
2022/09/27 01:54:12;;;;;;;;;;;21.70;99.90;;;;;;5154456;27;19999;-73
2022/09/27 01:56:40;;;;;;;;;;;21.70;99.90;;;;;;5154569;27;20331;-73
2022/09/27 01:59:09;;;;;;;;;;;21.70;99.90;;;;;;5154267;27;19911;-72
2022/09/27 02:01:36;;;;;;;;;;;21.70;99.90;;;;;;5152734;27;19994;-72
2022/09/27 02:04:04;;;;;;;;;;;21.70;99.90;;;;;;5154132;27;19936;-72
2022/09/27 02:06:32;;;;;;;;;;;21.70;99.90;;;;;;5154022;27;19945;-73
2022/09/27 02:09:01;;;;;;;;;;;21.70;99.90;;;;;;5154029;27;19903;-73
2022/09/27 02:11:27;;;;;;;;;;;21.70;99.90;;;;;;5153850;27;19907;-73
2022/09/27 02:14:02;;;;;;;;;;;21.70;99.90;;;;;;5152295;27;19930;-73
2022/09/27 02:16:28;;;;;;;;;;;21.70;99.90;;;;;;5152318;27;20254;-73
2022/09/27 02:19:10;;;;;;;;;;;21.70;99.90;;;;;;5153922;27;20371;-72
2022/09/27 02:21:56;;;;;;;;;;;21.70;99.90;;;;;;5153888;27;19994;-73
2022/09/27 02:24:29;;;;;;;;;;;21.60;99.90;;;;;;5153367;27;19954;-73
2022/09/27 02:27:05;;;;;;;;;;;21.70;99.90;;;;;;5154029;27;19909;-74
2022/09/27 02:32:34;;;;;;;;;;;21.70;99.90;;;;;;5153849;27;19926;-73
2022/09/27 02:35:03;;;;;;;;;;;21.70;99.90;;;;;;5153705;27;19903;-73
2022/09/27 02:37:29;;;;;;;;;;;21.70;99.90;;;;;;5151499;27;19927;-73
2022/09/27 02:39:56;;;;;;;;;;;21.70;99.90;;;;;;5152825;27;20007;-72
2022/09/27 02:42:22;;;;;;;;;;;21.70;99.90;;;;;;5152646;27;19919;-73
2022/09/27 02:44:48;;;;;;;;;;;21.80;99.90;;;;;;5153196;27;19908;-72
2022/09/27 02:47:26;;;;;;;;;;;21.80;99.90;;;;;;5151257;27;19992;-73
2022/09/27 02:50:02;;;;;;;;;;;21.80;99.90;;;;;;5153311;27;19910;-73
2022/09/27 02:52:31;;;;;;;;;;;21.90;99.90;;;;;;5153381;27;20378;-73
2022/09/27 02:55:09;;;;;;;;;;;21.80;99.90;;;;;;5153226;27;19910;-74
2022/09/27 02:57:41;;;;;;;;;;;21.80;99.90;;;;;;5153837;27;19903;-74
2022/09/27 03:00:10;;;;;;;;;;;21.80;99.90;;;;;;5153498;27;19994;-73
2022/09/27 03:02:42;;;;;;;;;;;21.70;99.90;;;;;;5151712;27;19911;-73
2022/09/27 03:05:11;;;;;;;;;;;21.60;99.90;;;;;;5152704;27;19903;-72
2022/09/27 03:07:37;;;;;;;;;;;21.60;99.90;;;;;;5153234;27;20326;-73
2022/09/27 03:10:03;;;;;;;;;;;21.60;99.90;;;;;;5153511;27;19910;-72
2022/09/27 03:12:29;;;;;;;;;;;21.70;99.90;;;;;;5153299;27;20385;-73
2022/09/27 03:14:56;;;;;;;;;;;21.60;99.90;;;;;;5153241;27;19903;-73
2022/09/27 03:17:22;;;;;;;;;;;21.60;99.90;;;;;;5153116;27;20012;-72
2022/09/27 03:19:48;;;;;;;;;;;21.60;99.90;;;;;;5153059;27;19903;-72
2022/09/27 03:22:13;;;;;;;;;;;21.50;99.90;;;;;;5153196;27;19955;-72
2022/09/27 03:24:40;;;;;;;;;;;21.50;99.90;;;;;;5153868;27;19946;-73
2022/09/27 03:27:06;;;;;;;;;;;21.50;99.90;;;;;;5154413;27;19903;-74
2022/09/27 03:29:31;;;;;;;;;;;21.50;99.90;;;;;;5154399;27;19907;-73
2022/09/27 03:31:57;;;;;;;;;;;21.50;99.90;;;;;;5154128;27;19903;-72
2022/09/27 03:34:26;;;;;;;;;;;21.50;99.90;;;;;;5153972;27;20338;-73
2022/09/27 03:36:52;;;;;;;;;;;21.50;99.90;;;;;;5153983;27;19903;-73
2022/09/27 03:39:18;;;;;;;;;;;21.50;99.90;;;;;;5154131;27;20371;-73
2022/09/27 03:41:43;;;;;;;;;;;21.60;99.90;;;;;;5153996;27;19903;-73
2022/09/27 03:44:09;;;;;;;;;;;21.50;99.90;;;;;;5154156;27;19933;-73
2022/09/27 03:46:35;;;;;;;;;;;21.50;99.90;;;;;;5153823;27;19994;-73
2022/09/27 03:49:01;;;;;;;;;;;21.50;99.90;;;;;;5154102;27;19941;-73
2022/09/27 03:51:27;;;;;;;;;;;21.40;99.90;;;;;;5153748;27;19907;-74
2022/09/27 03:53:52;;;;;;;;;;;21.40;99.90;;;;;;5154285;27;19974;-72
2022/09/27 03:56:18;;;;;;;;;;;21.40;99.90;;;;;;5153806;27;20258;-73
2022/09/27 03:58:44;;;;;;;;;;;21.40;99.90;;;;;;5153669;27;19903;-73
2022/09/27 04:01:10;;;;;;;;;;;21.30;99.90;;;;;;5153995;27;19914;-74
2022/09/27 04:03:37;;;;;;;;;;;21.30;99.90;;;;;;5153411;27;19911;-73
2022/09/27 04:06:02;;;;;;;;;;;21.40;99.90;;;;;;5153844;27;20258;-73
2022/09/27 04:08:29;;;;;;;;;;;21.30;99.90;;;;;;5153788;27;20439;-74
2022/09/27 04:10:55;;;;;;;;;;;21.30;99.90;;;;;;5151244;27;20251;-73
2022/09/27 04:13:21;;;;;;;;;;;21.30;99.90;;;;;;5153599;27;19915;-73
2022/09/27 04:15:47;;;;;;;;;;;21.30;99.90;;;;;;5153288;27;19925;-73
2022/09/27 04:18:13;;;;;;;;;;;21.30;99.90;;;;;;5154788;27;19903;-73
2022/09/27 04:20:39;;;;;;;;;;;21.30;99.90;;;;;;5153418;27;20267;-73
2022/09/27 04:23:05;;;;;;;;;;;21.30;99.90;;;;;;5154685;27;20002;-74
2022/09/27 04:25:33;;;;;;;;;;;21.40;99.90;;;;;;5154617;27;19997;-73
2022/09/27 04:28:01;;;;;;;;;;;21.40;99.90;;;;;;5155192;27;19963;-73
2022/09/27 04:30:27;;;;;;;;;;;21.30;99.90;;;;;;5154678;27;19955;-73
2022/09/27 04:32:53;;;;;;;;;;;21.30;99.90;;;;;;5155102;27;19903;-73
2022/09/27 04:38:03;;;;;;;;;;;21.40;99.90;;;;;;5154717;27;19909;-73
2022/09/27 04:40:29;;;;;;;;;;;21.40;99.90;;;;;;5155099;27;19903;-73
2022/09/27 04:42:55;;;;;;;;;;;21.30;99.90;;;;;;5154493;27;19918;-73
2022/09/27 04:45:21;;;;;;;;;;;21.30;99.90;;;;;;5155120;27;20288;-74
2022/09/27 04:47:48;;;;;;;;;;;21.30;99.90;;;;;;5154648;27;19903;-73
2022/09/27 04:50:14;;;;;;;;;;;21.30;99.90;;;;;;5154459;27;19903;-73
2022/09/27 04:52:40;;;;;;;;;;;21.40;99.90;;;;;;5154743;27;20314;-74
2022/09/27 04:55:07;;;;;;;;;;;21.30;99.90;;;;;;5154417;27;19925;-73
2022/09/27 04:57:33;;;;;;;;;;;21.30;99.90;;;;;;5154849;27;19910;-73
2022/09/27 04:59:59;;;;;;;;;;;21.20;99.90;;;;;;5154689;27;19903;-73
2022/09/27 05:02:26;;;;;;;;;;;21.20;99.90;;;;;;5154814;27;19958;-74
2022/09/27 05:04:52;;;;;;;;;;;21.30;99.90;;;;;;5154388;27;19938;-73
2022/09/27 05:07:18;;;;;;;;;;;21.30;99.90;;;;;;5153768;27;19903;-73
2022/09/27 05:09:44;;;;;;;;;;;21.40;99.90;;;;;;5153661;27;19909;-74
2022/09/27 05:12:12;;;;;;;;;;;21.40;99.90;;;;;;5147957;27;20005;-73
2022/09/27 05:14:38;;;;;;;;;;;21.50;99.90;;;;;;5154416;27;19918;-74
2022/09/27 05:17:06;;;;;;;;;;;21.60;99.90;;;;;;5154111;27;19903;-74
2022/09/27 05:19:32;;;;;;;;;;;21.50;99.90;;;;;;5154213;27;19906;-73
2022/09/27 05:21:58;;;;;;;;;;;21.60;99.90;;;;;;5155448;27;20411;-73
2022/09/27 05:24:26;;;;;;;;;;;21.60;99.90;;;;;;5158241;27;19907;-73
2022/09/27 05:26:53;;;;;;;;;;;21.60;99.90;;;;;;5156388;27;19945;-75
2022/09/27 05:29:19;;;;;;;;;;;21.60;99.90;;;;;;5156831;27;19910;-73
2022/09/27 05:31:44;;;;;;;;;;;21.60;99.90;;;;;;5156899;27;19926;-74
2022/09/27 05:34:11;;;;;;;;;;;21.70;99.90;;;;;;5156787;27;19902;-73
2022/09/27 05:36:37;;;;;;;;;;;21.70;99.90;;;;;;5156781;27;20315;-74
2022/09/27 05:39:03;;;;;;;;;;;21.70;99.90;;;;;;5156636;27;19903;-74
2022/09/27 05:41:31;;;;;;;;;;;22.20;99.90;;;;;;5156718;27;19903;-74
2022/09/27 05:43:57;;;;;;;;;;;23.00;99.90;;;;;;5156110;27;19911;-74
2022/09/27 05:46:23;;;;;;;;;;;24.00;99.90;;;;;;5156288;27;19993;-74
2022/09/27 05:48:49;;;;;;;;;;;25.20;99.90;;;;;;5156463;27;19946;-74
2022/09/27 05:51:15;;;;;;;;;;;26.60;99.90;;;;;;5155798;27;19955;-74
2022/09/27 05:53:41;;;;;;;;;;;27.00;99.90;;;;;;5155514;27;20006;-75
2022/09/27 05:56:25;;;;;;;;;;;27.70;99.90;;;;;;5155463;27;20355;-74
2022/09/27 05:58:51;;;;;;;;;;;28.50;99.90;;;;;;5155323;27;20323;-74
2022/09/27 06:01:17;;;;;;;;;;;29.50;99.90;;;;;;5155288;27;19907;-74
2022/09/27 06:03:42;;;;;;;;;;;30.30;99.90;;;;;;5154002;27;19915;-74
2022/09/27 06:06:09;;;;;;;;;;;31.50;99.90;;;;;;5153936;27;19903;-74
2022/09/27 06:08:36;;;;;;;;;;;31.70;99.90;;;;;;5155249;27;19910;-74
2022/09/27 06:11:04;;;;;;;;;;;32.30;99.90;;;;;;5155626;27;19942;-74
2022/09/27 06:13:30;;;;;;;;;;;32.80;99.90;;;;;;5155346;27;20010;-73
2022/09/27 06:15:57;;;;;;;;;;;33.60;99.90;;;;;;5155499;27;19946;-74
2022/09/27 06:18:23;;;;;;;;;;;34.10;99.90;;;;;;5155152;27;19911;-74
2022/09/27 06:20:48;;;;;;;;;;;34.80;99.90;;;;;;5156471;27;19903;-75
2022/09/27 06:23:17;;;;;;;;;;;35.00;99.90;;;;;;5156111;27;19911;-74
2022/09/27 06:25:43;;;;;;;;;;;35.00;99.90;;;;;;5154507;27;19903;-75
2022/09/27 06:28:09;;;;;;;;;;;35.80;99.90;;;;;;5155956;27;19914;-75
2022/09/27 06:30:59;;;;;;;;;;;36.50;99.90;;;;;;5156030;27;19903;-75
2022/09/27 06:33:26;;;;;;;;;;;36.30;99.90;;;;;;5155183;27;19903;-75
2022/09/27 06:35:52;;;;;;;;;;;36.20;99.90;;;;;;5155749;27;19909;-75
2022/09/27 06:38:20;;;;;;;;;;;36.20;99.90;;;;;;5154152;27;19903;-76
2022/09/27 06:40:46;;;;;;;;;;;36.30;99.90;;;;;;5155647;27;19956;-75
2022/09/27 06:43:13;;;;;;;;;;;36.80;99.90;;;;;;5155628;27;19938;-75
2022/09/27 06:45:39;;;;;;;;;;;36.30;99.90;;;;;;5155752;27;20342;-74
2022/09/27 06:48:05;;;;;;;;;;;35.70;99.90;;;;;;5156292;27;19925;-75
2022/09/27 06:50:32;;;;;;;;;;;35.70;99.90;;;;;;5155794;27;19907;-75
2022/09/27 06:52:58;;;;;;;;;;;36.10;99.90;;;;;;5155968;27;20363;-76
2022/09/27 06:55:24;;;;;;;;;;;36.30;99.90;;;;;;5155666;27;19909;-75
2022/09/27 07:00:37;;;;;;;;;;;35.80;99.90;;;;;;5155178;27;19971;-75
2022/09/27 07:03:03;;;;;;;;;;;35.10;99.90;;;;;;5155339;27;20296;-75
2022/09/27 07:05:30;;;;;;;;;;;34.50;99.90;;;;;;5154998;27;20391;-75
2022/09/27 07:07:56;;;;;;;;;;;34.50;99.90;;;;;;5155215;27;19926;-75
2022/09/27 07:10:26;;;;;;;;;;;34.60;99.90;;;;;;5154774;27;19919;-75
2022/09/27 07:12:52;;;;;;;;;;;34.80;99.90;;;;;;5155076;27;20026;-74
2022/09/27 07:15:20;;;;;;;;;;;34.60;99.90;;;;;;5154625;27;19942;-75
2022/09/27 07:17:46;;;;;;;;;;;34.00;99.90;;;;;;5154416;27;19903;-74
2022/09/27 07:20:30;;;;;;;;;;;33.00;99.90;;;;;;5154733;27;19907;-74
2022/09/27 07:22:57;;;;;;;;;;;32.40;99.90;;;;;;5152953;27;19960;-74
2022/09/27 07:25:24;;;;;;;;;;;32.00;99.90;;;;;;5154427;27;19910;-74
2022/09/27 07:27:51;;;;;;;;;;;31.10;99.90;;;;;;5154169;27;20075;-74
2022/09/27 07:30:17;;;;;;;;;;;31.00;99.90;;;;;;5154516;27;20005;-74
2022/09/27 07:32:43;;;;;;;;;;;30.70;99.90;;;;;;5152336;27;19903;-74
2022/09/27 07:35:10;;;;;;;;;;;30.30;99.90;;;;;;5154471;27;19910;-75
2022/09/27 07:37:36;;;;;;;;;;;29.80;99.90;;;;;;5154105;27;19903;-73
2022/09/27 07:40:05;;;;;;;;;;;29.70;99.90;;;;;;5154139;27;20019;-74
2022/09/27 07:42:31;;;;;;;;;;;29.40;99.90;;;;;;5154143;27;19991;-74
2022/09/27 07:44:57;;;;;;;;;;;29.10;99.90;;;;;;5153416;27;19925;-74
2022/09/27 07:47:23;;;;;;;;;;;28.80;99.90;;;;;;5154048;27;20204;-76
2022/09/27 07:49:51;;;;;;;;;;;28.50;99.90;;;;;;5153355;27;19903;-73
2022/09/27 07:52:18;;;;;;;;;;;28.40;99.90;;;;;;5153195;27;19903;-75
2022/09/27 07:54:44;;;;;;;;;;;28.40;99.90;;;;;;5153541;27;19903;-76
2022/09/27 07:57:10;;;;;;;;;;;28.70;99.90;;;;;;5153973;27;19903;-77
2022/09/27 07:59:36;;;;;;;;;;;28.80;99.90;;;;;;5153140;27;19995;-74
2022/09/27 08:02:02;;;;;;;;;;;29.10;99.90;;;;;;5151930;27;19960;-76
2022/09/27 08:04:27;;;;;;;;;;;29.20;99.90;;;;;;5152629;27;20001;-73
2022/09/27 08:06:53;;;;;;;;;;;29.30;99.90;;;;;;5152733;27;19903;-73
2022/09/27 08:09:19;;;;;;;;;;;29.30;99.90;;;;;;5152593;27;20292;-74
2022/09/27 08:11:45;;;;;;;;;;;28.90;99.90;;;;;;5152574;27;19903;-75
2022/09/27 08:14:11;;;;;;;;;;;28.90;99.90;;;;;;5153425;27;19910;-74
2022/09/27 08:16:40;;;;;;;;;;;28.70;99.90;;;;;;5152724;27;20285;-74
2022/09/27 08:19:06;;;;;;;;;;;28.40;99.90;;;;;;5153976;27;19910;-75
2022/09/27 08:21:32;;;;;;;;;;;28.20;99.90;;;;;;5153847;27;20307;-75
2022/09/27 08:23:58;;;;;;;;;;;28.30;99.90;;;;;;5152430;27;19919;-74
2022/09/27 08:26:26;;;;;;;;;;;28.60;99.90;;;;;;5153827;27;20268;-75
2022/09/27 08:28:52;;;;;;;;;;;28.60;99.90;;;;;;5153727;27;19907;-73
2022/09/27 08:31:18;;;;;;;;;;;28.40;99.90;;;;;;5154110;27;20312;-74
2022/09/27 08:33:47;;;;;;;;;;;28.30;99.90;;;;;;5153980;27;19909;-75
2022/09/27 08:36:13;;;;;;;;;;;28.10;99.90;;;;;;5152150;27;20287;-74
2022/09/27 08:38:39;;;;;;;;;;;28.10;99.90;;;;;;5153784;27;19955;-74
2022/09/27 08:41:23;;;;;;;;;;;28.20;99.90;;;;;;5153745;27;20028;-73
2022/09/27 08:44:03;;;;;;;;;;;28.10;99.90;;;;;;5153892;27;20357;-75
2022/09/27 08:46:50;;;;;;;;;;;28.00;99.90;;;;;;5153777;27;20363;-74
2022/09/27 08:49:25;;;;;;;;;;;27.90;99.90;;;;;;5154080;27;19976;-73
2022/09/27 08:51:52;;;;;;;;;;;27.80;99.90;;;;;;5153084;27;19938;-74
2022/09/27 08:54:23;;;;;;;;;;;27.90;99.90;;;;;;5153144;27;19903;-74
2022/09/27 08:56:51;;;;;;;;;;;27.90;99.90;;;;;;5155552;27;19918;-74
2022/09/27 08:59:27;;;;;;;;;;;27.90;99.90;;;;;;5157059;27;19903;-74
2022/09/27 09:01:54;;;;;;;;;;;27.80;99.90;;;;;;5157501;27;19903;-74
2022/09/27 09:07:41;;;;;;;;;;;27.40;99.90;;;;;;5157273;27;20477;-74
2022/09/27 09:13:33;;;;;;;;;;;27.60;99.90;;;;;;5157128;27;19921;-75
2022/09/27 09:16:06;;;;;;;;;;;27.60;99.90;;;;;;5157620;27;19957;-74
2022/09/27 09:18:44;;;;;;;;;;;27.80;99.90;;;;;;5157222;27;19907;-74
2022/09/27 09:21:34;;;;;;;;;;;27.80;99.90;;;;;;5157633;27;20311;-74
2022/09/27 09:24:00;;;;;;;;;;;27.90;99.90;;;;;;5157103;27;19953;-74
2022/09/27 09:26:41;;;;;;;;;;;27.70;99.90;;;;;;5157698;27;20239;-74
2022/09/27 09:29:10;;;;;;;;;;;27.80;99.90;;;;;;5157052;27;19903;-74
2022/09/27 09:31:41;;;;;;;;;;;28.10;99.90;;;;;;5157231;27;19903;-73
2022/09/27 09:34:09;;;;;;;;;;;28.20;99.90;;;;;;5157015;27;19903;-74
2022/09/27 09:36:56;;;;;;;;;;;28.10;99.90;;;;;;5157068;27;19903;-73
2022/09/27 09:39:40;;;;;;;;;;;28.10;99.90;;;;;;5156911;27;19959;-73
2022/09/27 09:42:12;;;;;;;;;;;28.00;99.90;;;;;;5156947;27;19903;-74
2022/09/27 09:44:43;;;;;;;;;;;28.10;99.90;;;;;;5156729;27;19919;-75
2022/09/27 09:47:17;;;;;;;;;;;27.80;99.90;;;;;;5156445;27;19961;-75
2022/09/27 09:49:50;;;;;;;;;;;27.80;99.90;;;;;;5154776;27;19903;-75
2022/09/27 09:52:18;;;;;;;;;;;27.90;99.90;;;;;;5156733;27;19998;-73
2022/09/27 09:55:01;;;;;;;;;;;27.90;99.90;;;;;;5156176;27;19903;-74
2022/09/27 09:57:40;;;;;;;;;;;28.00;99.90;;;;;;5156283;27;19968;-75
2022/09/27 10:00:16;;;;;;;;;;;28.10;99.90;;;;;;5156497;27;19903;-75
2022/09/27 10:02:43;;;;;;;;;;;28.20;99.90;;;;;;5155996;27;20358;-74
2022/09/27 10:05:13;;;;;;;;;;;27.90;99.90;;;;;;5155747;27;19907;-75
2022/09/27 10:07:39;;;;;;;;;;;27.80;99.90;;;;;;5154842;27;19983;-73
2022/09/27 10:10:07;;;;;;;;;;;27.60;99.90;;;;;;5156116;27;20258;-74
2022/09/27 10:12:34;;;;;;;;;;;27.20;99.90;;;;;;5155915;27;19919;-75
2022/09/27 10:15:01;;;;;;;;;;;27.30;99.90;;;;;;5156368;27;19942;-74
2022/09/27 10:17:41;;;;;;;;;;;27.50;99.90;;;;;;5156606;27;19955;-74
2022/09/27 10:20:13;;;;;;;;;;;27.70;99.90;;;;;;5155329;27;19903;-74
2022/09/27 10:22:44;;;;;;;;;;;28.10;99.90;;;;;;5155446;27;20001;-73
2022/09/27 10:25:09;;;;;;;;;;;28.40;99.90;;;;;;5155666;27;19911;-75
2022/09/27 10:27:45;;;;;;;;;;;28.50;99.90;;;;;;5154113;27;19915;-75
2022/09/27 10:30:24;;;;;;;;;;;28.50;99.90;;;;;;5155532;27;19926;-74
2022/09/27 10:32:51;;;;;;;;;;;28.60;99.90;;;;;;5155903;27;19925;-75
2022/09/27 10:38:23;;;;;;;;;;;28.30;99.90;;;;;;5155435;27;20240;-74
2022/09/27 10:40:50;;;;;;;;;;;28.20;99.90;;;;;;5155392;27;19903;-74
2022/09/27 10:43:23;;;;;;;;;;;28.10;99.90;;;;;;5155249;27;19911;-75
2022/09/27 10:45:49;;;;;;;;;;;28.30;99.90;;;;;;5155900;27;19910;-75
2022/09/27 10:48:21;;;;;;;;;;;28.10;99.90;;;;;;5155325;27;19903;-74
2022/09/27 10:51:00;;;;;;;;;;;28.20;99.90;;;;;;5155493;27;19947;-74
2022/09/27 10:53:26;;;;;;;;;;;28.10;99.90;;;;;;5154437;27;19903;-74
2022/09/27 10:55:52;;;;;;;;;;;28.20;99.90;;;;;;5155275;27;20334;-75
2022/09/27 10:58:24;;;;;;;;;;;28.30;99.90;;;;;;5155127;27;19957;-75
2022/09/27 11:01:02;;;;;;;;;;;28.50;99.90;;;;;;5155139;27;19906;-75
2022/09/27 11:03:29;;;;;;;;;;;28.80;99.90;;;;;;5153804;27;19918;-75
2022/09/27 11:05:55;;;;;;;;;;;28.90;99.90;;;;;;5154095;27;20388;-74
2022/09/27 11:08:23;;;;;;;;;;;28.80;99.90;;;;;;5155553;27;20358;-76
2022/09/27 11:11:02;;;;;;;;;;;28.40;99.90;;;;;;5153956;27;19909;-73
2022/09/27 11:13:33;;;;;;;;;;;28.50;99.90;;;;;;5152634;27;19966;-73
2022/09/27 11:15:59;;;;;;;;;;;28.30;99.90;;;;;;5152930;27;19921;-75
2022/09/27 11:18:45;;;;;;;;;;;28.50;99.90;;;;;;5154361;27;19903;-74
2022/09/27 11:21:30;;;;;;;;;;;28.60;99.90;;;;;;5154105;27;20478;-74
2022/09/27 11:23:56;;;;;;;;;;;28.60;99.90;;;;;;5152620;27;19915;-73
2022/09/27 11:26:27;;;;;;;;;;;28.80;99.90;;;;;;5153901;27;19907;-73
2022/09/27 11:28:53;;;;;;;;;;;29.00;99.90;;;;;;5154702;27;20000;-74
2022/09/27 11:31:38;;;;;;;;;;;29.00;99.90;;;;;;5152971;27;19950;-74
2022/09/27 11:34:22;;;;;;;;;;;29.00;99.90;;;;;;5154870;27;20296;-74
2022/09/27 11:36:57;;;;;;;;;;;28.90;99.90;;;;;;5154702;27;19910;-74
2022/09/27 11:39:39;;;;;;;;;;;28.90;99.90;;;;;;5154907;27;19914;-75
2022/09/27 11:42:08;;;;;;;;;;;28.70;99.90;;;;;;5154545;27;20006;-74
2022/09/27 11:44:40;;;;;;;;;;;28.60;99.90;;;;;;5154959;27;19911;-73
2022/09/27 11:47:24;;;;;;;;;;;28.80;99.90;;;;;;5154529;27;19997;-74
2022/09/27 11:50:06;;;;;;;;;;;28.90;99.90;;;;;;5154582;27;19926;-74
2022/09/27 11:52:54;;;;;;;;;;;29.10;99.90;;;;;;5153824;27;20385;-74
2022/09/27 11:55:32;;;;;;;;;;;29.10;99.90;;;;;;5155042;27;20006;-74
2022/09/27 11:57:59;;;;;;;;;;;28.90;99.90;;;;;;5154933;27;19953;-73
2022/09/27 12:00:41;;;;;;;;;;;28.50;99.90;;;;;;5154507;27;19910;-74
2022/09/27 12:03:09;;;;;;;;;;;28.30;99.90;;;;;;5154432;27;19918;-73
2022/09/27 12:05:54;;;;;;;;;;;28.10;99.90;;;;;;5153898;27;19945;-73
2022/09/27 12:08:20;;;;;;;;;;;27.90;99.90;;;;;;5154602;27;19928;-73
2022/09/27 12:10:47;;;;;;;;;;;27.80;99.90;;;;;;5154532;27;19915;-73
2022/09/27 12:13:15;;;;;;;;;;;27.80;99.90;;;;;;5152877;27;20378;-73
2022/09/27 12:15:42;;;;;;;;;;;27.30;99.90;;;;;;5154377;27;19903;-73
2022/09/27 12:18:30;;;;;;;;;;;27.40;99.90;;;;;;5155032;27;19961;-74
2022/09/27 12:20:58;;;;;;;;;;;27.40;99.90;;;;;;5154518;27;19903;-73
2022/09/27 12:23:28;;;;;;;;;;;27.40;99.90;;;;;;5154738;27;19918;-75
2022/09/27 12:25:56;;;;;;;;;;;27.50;99.90;;;;;;5154794;27;20437;-74
2022/09/27 12:28:22;;;;;;;;;;;27.50;99.90;;;;;;5154852;27;19922;-74
2022/09/27 12:30:54;;;;;;;;;;;27.50;99.90;;;;;;5154410;27;19915;-75
2022/09/27 12:33:37;;;;;;;;;;;27.50;99.90;;;;;;5157464;27;20010;-74
2022/09/27 12:36:06;;;;;;;;;;;27.60;99.90;;;;;;5158994;27;19907;-74
2022/09/27 12:38:44;;;;;;;;;;;27.60;99.90;;;;;;5158570;27;20011;-74
2022/09/27 12:41:12;;;;;;;;;;;27.70;99.90;;;;;;5158973;27;19907;-75
2022/09/27 12:43:40;;;;;;;;;;;27.90;99.90;;;;;;5158359;27;20059;-74
2022/09/27 12:46:29;;;;;;;;;;;28.10;99.90;;;;;;5157992;27;19910;-74
2022/09/27 12:49:04;;;;;;;;;;;28.00;99.90;;;;;;5158306;27;19903;-74
2022/09/27 12:52:08;;;;;;;;;;;28.10;99.90;;;;;;5156963;27;20020;-74
2022/09/27 12:54:43;;;;;;;;;;;27.80;99.90;;;;;;5114817;28;19966;-73
2022/09/27 12:57:28;;;;;;;;;;;28.10;99.90;;;;;;5114702;28;19907;-73
2022/09/27 13:00:02;;;;;;;;;;;28.10;99.90;;;;;;5115210;28;19922;-73
2022/09/27 13:02:30;;;;;;;;;;;28.00;99.90;;;;;;5096926;28;20006;-74
2022/09/27 13:05:14;;;;;;;;;;;27.90;99.90;;;;;;5114191;28;20359;-73
2022/09/27 13:07:55;;;;;;;;;;;27.80;99.90;;;;;;5114658;28;19987;-73
2022/09/27 13:10:28;;;;;;;;;;;27.60;99.90;;;;;;5114026;28;19943;-75
2022/09/27 13:12:54;;;;;;;;;;;27.80;99.90;;;;;;5113953;28;20322;-74
2022/09/27 13:15:34;;;;;;;;;;;27.90;99.90;;;;;;5114629;28;19903;-73
2022/09/27 13:18:02;;;;;;;;;;;27.90;99.90;;;;;;5114663;28;19949;-73
2022/09/27 13:20:30;;;;;;;;;;;28.10;99.90;;;;;;5114935;28;20343;-75
2022/09/27 13:22:57;;;;;;;;;;;28.10;99.90;;;;;;5114160;28;19919;-74
2022/09/27 13:25:42;;;;;;;;;;;28.10;99.90;;;;;;5127257;27;19998;-74
2022/09/27 13:28:32;;;;;;;;;;;28.10;99.90;;;;;;5158372;27;20310;-74
2022/09/27 13:30:58;;;;;;;;;;;28.10;99.90;;;;;;5156993;27;19903;-74
2022/09/27 13:33:27;;;;;;;;;;;28.20;99.90;;;;;;5157769;27;19938;-75
2022/09/27 13:36:12;;;;;;;;;;;27.90;99.90;;;;;;5157705;27;20001;-74
2022/09/27 13:38:38;;;;;;;;;;;27.70;99.90;;;;;;5158070;27;19910;-74
2022/09/27 13:41:20;;;;;;;;;;;27.50;99.90;;;;;;5157597;27;19903;-75
2022/09/27 13:43:46;;;;;;;;;;;27.30;99.90;;;;;;5156379;27;19925;-73
2022/09/27 13:46:19;;;;;;;;;;;27.30;99.90;;;;;;5157522;27;19983;-74
2022/09/27 13:48:51;;;;;;;;;;;27.30;99.90;;;;;;5156993;27;19910;-74
2022/09/27 13:51:32;;;;;;;;;;;27.20;99.90;;;;;;5156532;27;19903;-74
2022/09/27 13:54:01;;;;;;;;;;;27.20;99.90;;;;;;5156016;27;19903;-74
2022/09/27 13:56:39;;;;;;;;;;;27.00;99.90;;;;;;5155889;27;19967;-74
2022/09/27 13:59:07;;;;;;;;;;;27.00;99.90;;;;;;5154385;27;19909;-73
2022/09/27 14:01:42;;;;;;;;;;;27.10;99.90;;;;;;5154319;27;19906;-73
2022/09/27 14:04:11;;;;;;;;;;;27.20;99.90;;;;;;5155772;27;19911;-74
2022/09/27 14:06:42;;;;;;;;;;;27.30;99.90;;;;;;5155763;27;19926;-74
2022/09/27 14:09:16;;;;;;;;;;;27.40;99.90;;;;;;5156286;27;19994;-73
2022/09/27 14:11:43;;;;;;;;;;;27.40;99.90;;;;;;5155741;27;19952;-73
2022/09/27 14:14:14;;;;;;;;;;;27.50;99.90;;;;;;5154132;27;19911;-73
2022/09/27 14:16:46;;;;;;;;;;;27.50;99.90;;;;;;5154143;27;19942;-73
2022/09/27 14:19:14;;;;;;;;;;;27.60;99.90;;;;;;5156042;27;20027;-74
2022/09/27 14:21:41;;;;;;;;;;;27.50;99.90;;;;;;5155517;27;19903;-73
2022/09/27 14:24:22;;;;;;;;;;;27.00;99.90;;;;;;5153904;27;19961;-74
2022/09/27 14:26:49;;;;;;;;;;;26.90;99.90;;;;;;5155897;27;19903;-73
2022/09/27 14:29:16;;;;;;;;;;;27.00;99.90;;;;;;5154906;27;19957;-73
2022/09/27 14:31:42;;;;;;;;;;;27.00;99.90;;;;;;5155614;27;19903;-73
2022/09/27 14:34:07;;;;;;;;;;;27.00;99.90;;;;;;5155112;27;19956;-74
2022/09/27 14:39:22;;;;;;;;;;;26.80;99.90;;;;;;5155209;27;19909;-74
2022/09/27 14:41:48;;;;;;;;;;;26.60;99.90;;;;;;5155117;27;19903;-72
2022/09/27 14:44:19;;;;;;;;;;;26.40;99.90;;;;;;5155593;27;20012;-74
2022/09/27 14:46:45;;;;;;;;;;;26.30;99.90;;;;;;5155040;27;19995;-74
2022/09/27 14:49:19;;;;;;;;;;;26.40;99.90;;;;;;5152719;27;19946;-74
2022/09/27 14:51:50;;;;;;;;;;;26.40;99.90;;;;;;5154483;27;19942;-75
2022/09/27 14:54:30;;;;;;;;;;;26.30;99.90;;;;;;5153416;27;20242;-74